Time;durP1;ratioP1;P1;durP2;ratioP2;P2;SDS_P1;SDS_P2;PMS_P1;PMS_P2;Temp;Humidity;BMP_temperature;BMP_pressure;BME280_temperature;BME280_humidity;BME280_pressure;Samples;Min_cycle;Max_cycle;Signal;HPM_P1;HPM_P2
2023/04/13 00:02:54;;;;;;;4.73;4.33;;;13.30;70.80;;;;;;6264611;28;20470;-64
2023/04/13 00:06:01;;;;;;;5.00;4.50;;;13.30;70.90;;;;;;6265466;28;20474;-63
2023/04/13 00:09:05;;;;;;;4.80;4.37;;;13.20;70.70;;;;;;6264706;28;20776;-63
2023/04/13 00:12:09;;;;;;;6.43;4.17;;;13.30;71.00;;;;;;6260091;28;20475;-63
2023/04/13 00:15:13;;;;;;;4.37;3.80;;;13.20;70.80;;;;;;6264906;28;20471;-64
2023/04/13 00:18:16;;;;;;;5.93;4.30;;;13.10;70.70;;;;;;6260862;28;20470;-64
2023/04/13 00:21:20;;;;;;;6.90;4.77;;;13.00;71.10;;;;;;6276510;28;20517;-64
2023/04/13 00:24:23;;;;;;;5.23;4.83;;;12.90;71.80;;;;;;6276445;28;20478;-64
2023/04/13 00:27:26;;;;;;;4.10;3.80;;;12.80;71.30;;;;;;6276252;28;20524;-63
2023/04/13 00:30:30;;;;;;;5.30;4.27;;;12.80;71.60;;;;;;6276168;28;20483;-64
2023/04/13 00:33:33;;;;;;;5.33;4.33;;;12.80;72.00;;;;;;6276113;28;20592;-63
2023/04/13 00:36:38;;;;;;;4.90;4.20;;;12.90;72.20;;;;;;6275957;28;20470;-63
2023/04/13 00:39:42;;;;;;;4.43;3.80;;;12.90;72.30;;;;;;6266761;28;20482;-63
2023/04/13 00:42:46;;;;;;;4.57;3.77;;;12.90;72.20;;;;;;6275875;28;20481;-63
2023/04/13 00:45:49;;;;;;;5.67;4.27;;;13.00;72.30;;;;;;6275802;28;20466;-63
2023/04/13 00:48:54;;;;;;;4.60;4.27;;;13.00;72.50;;;;;;6275289;28;20461;-63
2023/04/13 00:51:59;;;;;;;3.63;3.33;;;13.00;72.30;;;;;;6276019;28;20478;-63
2023/04/13 00:55:03;;;;;;;4.37;3.97;;;13.00;72.30;;;;;;6272431;28;20478;-63
2023/04/13 00:58:06;;;;;;;4.20;3.80;;;13.00;73.00;;;;;;6255561;28;20481;-63
2023/04/13 01:01:09;;;;;;;4.00;3.70;;;13.10;74.30;;;;;;6250487;28;20471;-62
2023/04/13 01:04:13;;;;;;;4.70;4.30;;;13.10;73.50;;;;;;6250412;28;20489;-58
2023/04/13 01:07:26;;;;;;;7.27;4.43;;;13.10;74.20;;;;;;6250064;28;20471;-59
2023/04/13 01:10:36;;;;;;;7.73;4.30;;;13.10;74.50;;;;;;6250477;28;20479;-58
2023/04/13 01:13:45;;;;;;;5.17;4.07;;;13.10;74.30;;;;;;6250237;28;20478;-58
2023/04/13 01:16:53;;;;;;;5.40;3.43;;;13.10;75.00;;;;;;6250038;28;20467;-59
2023/04/13 01:20:00;;;;;;;5.73;4.00;;;13.00;75.20;;;;;;6250093;28;20475;-59
2023/04/13 01:23:09;;;;;;;4.50;4.10;;;13.00;77.70;;;;;;6250335;28;21009;-59
2023/04/13 01:26:13;;;;;;;4.63;4.23;;;13.00;79.00;;;;;;6274730;28;20462;-63
2023/04/13 01:29:18;;;;;;;4.77;4.20;;;12.90;80.40;;;;;;6276145;28;20819;-63
2023/04/13 01:32:21;;;;;;;5.00;3.97;;;12.90;81.70;;;;;;6275679;28;20441;-65
2023/04/13 01:35:25;;;;;;;5.50;5.00;;;12.70;82.70;;;;;;6275428;28;20473;-65
2023/04/13 01:38:29;;;;;;;5.40;4.03;;;12.70;85.80;;;;;;6274455;28;20534;-65
2023/04/13 01:41:35;;;;;;;5.93;4.80;;;12.50;90.30;;;;;;6270010;28;20462;-65
2023/04/13 01:44:39;;;;;;;8.30;4.77;;;12.50;91.10;;;;;;6275046;28;20563;-60
2023/04/13 01:47:50;;;;;;;5.33;4.40;;;12.40;91.60;;;;;;6274854;28;20478;-60
2023/04/13 01:50:57;;;;;;;5.33;4.83;;;12.40;92.80;;;;;;6274690;28;20535;-60
2023/04/13 01:54:06;;;;;;;6.10;5.50;;;12.40;93.40;;;;;;6274315;28;20477;-59
2023/04/13 01:57:11;;;;;;;6.00;4.90;;;12.40;94.20;;;;;;6274513;28;20467;-60
2023/04/13 02:00:18;;;;;;;6.13;5.23;;;12.40;94.80;;;;;;6273863;28;20474;-64
2023/04/13 02:03:21;;;;;;;5.30;4.70;;;12.40;95.50;;;;;;6274430;28;20478;-60
2023/04/13 02:06:25;;;;;;;5.50;5.00;;;12.30;95.80;;;;;;6273867;28;20543;-60
2023/04/13 02:09:28;;;;;;;5.80;5.30;;;12.30;96.60;;;;;;6274603;28;20474;-64
2023/04/13 02:12:32;;;;;;;6.50;5.50;;;12.30;97.20;;;;;;6274434;28;20469;-58
2023/04/13 02:15:38;;;;;;;7.70;5.13;;;12.30;97.80;;;;;;6274175;28;20474;-58
2023/04/13 02:18:41;;;;;;;7.10;5.80;;;12.30;98.40;;;;;;6274746;28;20466;-59
2023/04/13 02:21:44;;;;;;;5.37;4.87;;;12.30;98.80;;;;;;6278482;28;20482;-63
2023/04/13 02:24:49;;;;;;;7.03;4.20;;;12.30;99.10;;;;;;6278757;28;20477;-62
2023/04/13 02:27:52;;;;;;;4.97;4.10;;;12.30;99.30;;;;;;6279325;28;20787;-63
2023/04/13 02:30:58;;;;;;;8.17;5.30;;;12.20;99.40;;;;;;6279457;28;20469;-59
2023/04/13 02:34:01;;;;;;;5.57;4.80;;;12.20;99.70;;;;;;6278883;28;20477;-59
2023/04/13 02:37:08;;;;;;;7.90;5.30;;;12.20;99.90;;;;;;6278867;28;20466;-63
2023/04/13 02:40:11;;;;;;;5.23;4.73;;;12.10;99.90;;;;;;6278714;28;20973;-59
2023/04/13 02:43:14;;;;;;;5.80;4.70;;;12.10;99.90;;;;;;6278998;28;20470;-59
2023/04/13 02:46:19;;;;;;;8.10;4.90;;;12.00;99.90;;;;;;6278612;28;20473;-59
2023/04/13 02:49:22;;;;;;;7.67;5.50;;;12.00;99.90;;;;;;6270184;28;20563;-59
2023/04/13 02:52:26;;;;;;;7.17;5.53;;;11.90;99.90;;;;;;6279284;28;20482;-58
2023/04/13 02:55:29;;;;;;;5.33;4.63;;;11.90;99.90;;;;;;6279372;28;20470;-59
2023/04/13 02:58:32;;;;;;;5.40;4.80;;;11.90;99.90;;;;;;6278915;28;20485;-63
2023/04/13 03:01:36;;;;;;;5.60;5.00;;;12.00;99.90;;;;;;6278838;28;20478;-64
2023/04/13 03:04:40;;;;;;;5.67;5.17;;;12.00;99.90;;;;;;6278323;28;20478;-63
2023/04/13 03:07:44;;;;;;;10.10;6.57;;;12.00;99.90;;;;;;6278559;28;20559;-63
2023/04/13 03:10:47;;;;;;;6.23;5.63;;;12.00;99.90;;;;;;6277943;28;20509;-58
2023/04/13 03:13:52;;;;;;;7.20;6.10;;;12.00;99.90;;;;;;6277588;28;20523;-59
2023/04/13 03:16:57;;;;;;;9.03;8.13;;;12.00;99.90;;;;;;6277917;28;20631;-64
2023/04/13 03:20:00;;;;;;;6.97;6.27;;;12.00;99.90;;;;;;6277745;28;20791;-64
2023/04/13 03:23:04;;;;;;;7.63;5.60;;;12.00;99.90;;;;;;6277629;28;20481;-63
2023/04/13 03:26:07;;;;;;;5.77;5.17;;;12.00;99.90;;;;;;6277463;28;20477;-59
2023/04/13 03:29:11;;;;;;;7.70;5.50;;;11.90;99.90;;;;;;6277334;28;20474;-59
2023/04/13 03:32:15;;;;;;;9.30;5.70;;;11.90;99.90;;;;;;6253017;28;20898;-59
2023/04/13 03:35:18;;;;;;;6.10;5.50;;;11.90;99.90;;;;;;6278556;28;20462;-62
2023/04/13 03:38:21;;;;;;;5.70;5.10;;;11.80;99.90;;;;;;6277708;28;20442;-58
2023/04/13 03:41:24;;;;;;;5.70;4.40;;;11.80;99.90;;;;;;6276826;28;20474;-59
2023/04/13 03:44:28;;;;;;;6.80;5.10;;;11.70;99.90;;;;;;6277731;28;20462;-65
2023/04/13 03:47:32;;;;;;;5.77;5.00;;;11.70;99.90;;;;;;6278140;28;20565;-60
2023/04/13 03:50:35;;;;;;;8.00;4.97;;;11.60;99.90;;;;;;6273255;28;20465;-60
2023/04/13 03:53:39;;;;;;;5.67;5.20;;;11.50;99.90;;;;;;6277643;28;20477;-63
2023/04/13 03:56:42;;;;;;;5.40;4.93;;;11.60;99.90;;;;;;6281224;28;21016;-59
2023/04/13 03:59:45;;;;;;;6.87;5.20;;;11.60;99.90;;;;;;6280116;28;20478;-59
2023/04/13 04:02:49;;;;;;;6.30;5.70;;;11.60;99.90;;;;;;6278796;28;20535;-64
2023/04/13 04:05:53;;;;;;;6.30;5.63;;;11.70;99.90;;;;;;6279982;28;20815;-65
2023/04/13 04:08:56;;;;;;;7.13;4.73;;;11.70;99.90;;;;;;6279869;28;20466;-59
2023/04/13 04:12:00;;;;;;;5.23;4.73;;;11.70;99.90;;;;;;6276763;28;20948;-60
2023/04/13 04:15:04;;;;;;;6.80;5.00;;;11.70;99.90;;;;;;6277107;28;20485;-59
2023/04/13 04:18:09;;;;;;;5.97;4.80;;;11.60;99.90;;;;;;6276325;28;20480;-59
2023/04/13 04:21:15;;;;;;;6.37;5.47;;;11.60;99.90;;;;;;6276632;28;20946;-63
2023/04/13 04:24:21;;;;;;;8.40;5.73;;;11.50;99.90;;;;;;6276133;28;20478;-63
2023/04/13 04:27:25;;;;;;;6.23;5.63;;;11.40;99.90;;;;;;6276343;28;20552;-59
2023/04/13 04:30:32;;;;;;;6.27;5.17;;;11.40;99.90;;;;;;6276228;28;20541;-64
2023/04/13 04:33:38;;;;;;;6.97;6.20;;;11.30;99.90;;;;;;6276463;28;20466;-60
2023/04/13 04:36:49;;;;;;;6.37;4.70;;;11.30;99.90;;;;;;6276151;28;20481;-65
2023/04/13 04:39:52;;;;;;;9.30;6.73;;;11.30;99.90;;;;;;6275987;28;20482;-65
2023/04/13 04:42:55;;;;;;;6.10;5.60;;;11.30;99.90;;;;;;6276299;28;20470;-65
2023/04/13 04:46:01;;;;;;;5.63;5.13;;;11.30;99.90;;;;;;6276619;28;20784;-65
2023/04/13 04:49:06;;;;;;;8.43;5.80;;;11.30;99.90;;;;;;6276086;28;20481;-65
2023/04/13 04:52:11;;;;;;;7.03;5.27;;;11.40;99.90;;;;;;6275861;28;20466;-66
2023/04/13 04:55:14;;;;;;;8.30;4.93;;;11.40;99.90;;;;;;6275731;28;20477;-64
2023/04/13 04:58:18;;;;;;;6.30;5.40;;;11.40;99.90;;;;;;6275606;28;20496;-60
2023/04/13 05:01:25;;;;;;;6.80;6.10;;;11.30;99.90;;;;;;6275415;28;20493;-63
2023/04/13 05:04:32;;;;;;;6.90;5.23;;;11.30;99.90;;;;;;6274978;28;20503;-59
2023/04/13 05:07:36;;;;;;;6.13;5.53;;;11.20;99.90;;;;;;6275547;28;20497;-64
2023/04/13 05:10:44;;;;;;;6.67;5.97;;;11.20;99.90;;;;;;6275579;28;20469;-64
2023/04/13 05:13:47;;;;;;;7.63;5.20;;;11.20;99.90;;;;;;6275186;28;20474;-63
2023/04/13 05:16:50;;;;;;;7.33;4.97;;;11.20;99.90;;;;;;6275163;28;20986;-65
2023/04/13 05:19:55;;;;;;;6.27;5.10;;;11.20;99.90;;;;;;6275141;28;20473;-66
2023/04/13 05:22:58;;;;;;;7.13;4.90;;;11.20;99.90;;;;;;6274775;28;20972;-60
2023/04/13 05:26:01;;;;;;;9.13;5.47;;;11.20;99.90;;;;;;6275125;28;20474;-60
2023/04/13 05:29:06;;;;;;;7.13;6.53;;;11.20;99.90;;;;;;6274760;28;20470;-60
2023/04/13 05:32:10;;;;;;;6.93;5.87;;;11.30;99.90;;;;;;6274897;28;20481;-63
2023/04/13 05:35:14;;;;;;;12.90;6.10;;;11.30;99.90;;;;;;6274259;28;20454;-58
2023/04/13 05:38:17;;;;;;;6.60;5.40;;;11.30;99.90;;;;;;6275245;28;20438;-65
2023/04/13 05:41:21;;;;;;;7.30;6.00;;;11.30;99.90;;;;;;6275003;28;20490;-66
2023/04/13 05:44:24;;;;;;;11.00;6.50;;;11.30;99.90;;;;;;6275134;28;20478;-66
2023/04/13 05:47:29;;;;;;;8.60;6.77;;;11.30;99.90;;;;;;6274848;28;20442;-65
2023/04/13 05:50:33;;;;;;;7.43;6.60;;;11.40;99.90;;;;;;6274953;28;20462;-64
2023/04/13 05:53:37;;;;;;;7.53;6.50;;;11.30;99.90;;;;;;6274340;28;20831;-59
2023/04/13 05:56:40;;;;;;;8.80;5.77;;;11.30;99.90;;;;;;6274736;28;20470;-64
2023/04/13 05:59:43;;;;;;;6.43;5.53;;;11.30;99.90;;;;;;6274883;28;20523;-59
2023/04/13 06:02:48;;;;;;;6.90;5.37;;;11.30;99.90;;;;;;6274522;28;20954;-59
2023/04/13 06:05:52;;;;;;;8.20;5.70;;;11.30;99.90;;;;;;6274086;28;20481;-58
2023/04/13 06:08:55;;;;;;;7.93;5.87;;;11.40;99.90;;;;;;6274142;28;20481;-58
2023/04/13 06:11:59;;;;;;;8.07;6.00;;;11.40;99.90;;;;;;6274254;28;20991;-58
2023/04/13 06:15:02;;;;;;;7.17;5.60;;;11.40;99.90;;;;;;6274217;28;20473;-58
2023/04/13 06:18:06;;;;;;;6.43;5.80;;;11.40;99.90;;;;;;6274179;28;20469;-58
2023/04/13 06:21:10;;;;;;;7.20;6.50;;;11.50;99.90;;;;;;6274534;28;20477;-60
2023/04/13 06:24:13;;;;;;;6.87;6.07;;;11.50;99.90;;;;;;6274555;28;20488;-59
2023/04/13 06:27:16;;;;;;;6.60;5.60;;;11.60;99.90;;;;;;6273840;28;20604;-59
2023/04/13 06:30:20;;;;;;;6.80;6.10;;;11.60;99.90;;;;;;6274639;28;20480;-59
2023/04/13 06:33:25;;;;;;;7.07;5.60;;;11.70;99.90;;;;;;6274449;28;20477;-59
2023/04/13 06:36:29;;;;;;;9.20;5.57;;;11.70;99.90;;;;;;6274296;28;20612;-59
2023/04/13 06:39:36;;;;;;;5.70;5.10;;;11.70;99.90;;;;;;6274330;28;20470;-63
2023/04/13 06:42:39;;;;;;;6.90;6.20;;;11.70;99.90;;;;;;6274215;28;20490;-58
2023/04/13 06:45:43;;;;;;;8.73;5.60;;;11.80;99.90;;;;;;6273989;28;20477;-63
2023/04/13 06:48:46;;;;;;;5.90;5.40;;;11.80;99.90;;;;;;6274149;28;20478;-63
2023/04/13 06:51:51;;;;;;;7.67;5.60;;;11.80;99.90;;;;;;6276173;28;20474;-64
2023/04/13 06:54:54;;;;;;;9.27;5.67;;;11.80;99.90;;;;;;6276671;28;20488;-65
2023/04/13 06:57:57;;;;;;;6.77;5.07;;;11.80;99.90;;;;;;6275230;28;20966;-64
2023/04/13 07:01:01;;;;;;;7.20;5.10;;;11.90;99.90;;;;;;6273744;28;20478;-64
2023/04/13 07:04:06;;;;;;;6.47;5.60;;;11.90;99.90;;;;;;6269257;28;20576;-60
2023/04/13 07:07:11;;;;;;;7.70;3.70;;;11.80;99.90;;;;;;6277261;28;20478;-59
2023/04/13 07:10:14;;;;;;;5.33;4.80;;;11.80;99.90;;;;;;6277988;28;20474;-59
2023/04/13 07:13:17;;;;;;;4.73;3.87;;;11.80;99.90;;;;;;6277983;28;20488;-60
2023/04/13 07:16:20;;;;;;;3.73;3.43;;;11.80;99.90;;;;;;6277932;28;20489;-60
2023/04/13 07:19:24;;;;;;;5.03;4.53;;;11.80;99.90;;;;;;6278232;28;20478;-60
2023/04/13 07:22:34;;;;;;;5.27;4.00;;;11.80;99.90;;;;;;6277961;28;20496;-59
2023/04/13 07:25:37;;;;;;;4.47;4.03;;;11.90;99.90;;;;;;6277983;28;20826;-64
2023/04/13 07:28:40;;;;;;;4.47;4.07;;;11.90;99.90;;;;;;6278466;28;20480;-59
2023/04/13 07:31:43;;;;;;;5.13;4.27;;;12.00;99.90;;;;;;6278048;28;20474;-65
2023/04/13 07:34:47;;;;;;;12.07;9.03;;;12.10;99.90;;;;;;6278217;28;20504;-64
2023/04/13 07:37:51;;;;;;;8.17;6.73;;;12.10;99.90;;;;;;6278158;28;20476;-60
2023/04/13 07:40:55;;;;;;;11.87;8.30;;;12.10;99.90;;;;;;6277472;28;20489;-60
2023/04/13 07:43:58;;;;;;;7.20;6.20;;;12.20;99.90;;;;;;6277704;28;20478;-63
2023/04/13 07:47:02;;;;;;;9.20;4.20;;;12.20;99.90;;;;;;6277928;28;20592;-64
2023/04/13 07:50:07;;;;;;;6.30;4.97;;;12.30;99.90;;;;;;6278181;28;20565;-63
2023/04/13 07:53:11;;;;;;;5.60;4.63;;;12.20;99.90;;;;;;6283463;28;20469;-64
2023/04/13 07:56:15;;;;;;;5.77;4.23;;;12.20;99.90;;;;;;6288075;28;20459;-60
2023/04/13 07:59:18;;;;;;;7.70;5.40;;;12.20;99.90;;;;;;6289039;28;20826;-60
2023/04/13 08:23:29;;;;;;;3.33;3.03;;;12.90;99.90;;;;;;6341635;27;20581;-61
2023/04/13 08:26:32;;;;;;;3.57;3.10;;;13.00;99.90;;;;;;6322043;28;20437;-61
2023/04/13 08:29:35;;;;;;;3.40;2.47;;;12.90;99.90;;;;;;6321908;28;20440;-61
2023/04/13 08:32:39;;;;;;;2.40;2.20;;;12.80;99.90;;;;;;6322035;28;20448;-66
2023/04/13 08:35:42;;;;;;;2.37;2.17;;;12.80;99.90;;;;;;6322339;28;20464;-66
2023/04/13 08:38:47;;;;;;;3.43;2.40;;;12.80;99.90;;;;;;6321745;28;20751;-64
2023/04/13 08:41:50;;;;;;;5.27;3.07;;;12.80;99.90;;;;;;6315480;28;20474;-68
2023/04/13 08:44:57;;;;;;;6.93;4.07;;;12.80;99.90;;;;;;6308662;28;20456;-65
2023/04/13 08:48:01;;;;;;;2.60;2.40;;;12.90;99.90;;;;;;6295126;28;20437;-67
2023/04/13 08:51:06;;;;;;;2.77;2.37;;;12.90;99.90;;;;;;6295263;28;20464;-67
2023/04/13 08:54:13;;;;;;;1.87;1.67;;;12.90;99.90;;;;;;6296362;28;20519;-66
2023/04/13 08:57:17;;;;;;;3.80;1.53;;;12.90;99.90;;;;;;6307017;28;20475;-67
2023/04/13 09:00:22;;;;;;;1.60;1.50;;;12.90;99.90;;;;;;6308210;28;20601;-66
2023/04/13 09:03:28;;;;;;;1.47;1.37;;;13.00;99.90;;;;;;6311382;28;20492;-66
2023/04/13 09:06:35;;;;;;;13.80;11.40;;;13.20;99.90;;;;;;6305018;28;20448;-65
2023/04/13 09:09:42;;;;;;;2.30;2.10;;;13.30;99.90;;;;;;6311618;28;20779;-65
2023/04/13 09:12:46;;;;;;;2.50;2.30;;;13.30;99.90;;;;;;6301114;28;20426;-66
2023/04/13 09:15:50;;;;;;;2.00;1.57;;;13.40;99.90;;;;;;6295749;28;20473;-64
2023/04/13 09:18:54;;;;;;;1.97;1.87;;;13.30;99.90;;;;;;6295459;28;20456;-65
2023/04/13 09:21:57;;;;;;;2.27;1.70;;;13.20;99.90;;;;;;6299158;28;20488;-65
2023/04/13 09:25:02;;;;;;;1.40;1.30;;;13.30;99.90;;;;;;6316243;28;20464;-65
2023/04/13 09:28:07;;;;;;;1.40;1.20;;;13.10;99.90;;;;;;6307153;28;20519;-65
2023/04/13 09:31:14;;;;;;;1.70;1.27;;;13.00;99.90;;;;;;6295159;28;20462;-68
2023/04/13 09:34:27;;;;;;;1.27;1.17;;;12.90;99.90;;;;;;6281713;28;20462;-65
2023/04/13 09:37:31;;;;;;;2.47;1.70;;;12.80;99.90;;;;;;6279181;28;20423;-66
2023/04/13 09:40:37;;;;;;;1.30;1.20;;;12.70;99.90;;;;;;6278535;28;20438;-67
2023/04/13 09:43:40;;;;;;;0.90;0.83;;;12.70;99.90;;;;;;6278341;28;20485;-64
2023/04/13 09:46:44;;;;;;;0.90;0.90;;;12.50;99.90;;;;;;6279935;28;20446;-63
2023/04/13 09:49:47;;;;;;;0.97;0.90;;;12.40;99.90;;;;;;6302191;28;20452;-66
2023/04/13 09:52:59;;;;;;;3.37;1.00;;;12.30;99.90;;;;;;6302710;28;20433;-66
2023/04/13 09:56:04;;;;;;;0.80;0.73;;;12.10;99.90;;;;;;6302700;28;20449;-66
2023/04/13 09:59:09;;;;;;;1.60;0.80;;;12.20;99.90;;;;;;6303139;28;20441;-67
2023/04/13 10:02:13;;;;;;;3.73;2.10;;;12.20;99.90;;;;;;6302910;28;20473;-67
2023/04/13 10:05:17;;;;;;;1.93;1.70;;;12.20;99.90;;;;;;6302465;28;20963;-65
2023/04/13 10:08:21;;;;;;;1.90;1.27;;;12.10;99.90;;;;;;6302851;28;20449;-67
2023/04/13 10:11:46;;;;;;;1.20;1.10;;;12.20;99.90;;;;;;6302832;28;20471;-64
2023/04/13 10:14:51;;;;;;;1.33;1.20;;;12.00;99.90;;;;;;6302708;28;20458;-64
2023/04/13 10:18:06;;;;;;;1.00;1.00;;;12.10;99.90;;;;;;6302693;28;20433;-67
2023/04/13 10:21:10;;;;;;;1.70;1.37;;;12.00;99.90;;;;;;6302555;28;20497;-66
2023/04/13 10:24:14;;;;;;;1.57;1.43;;;11.80;99.90;;;;;;6302226;28;20496;-68
2023/04/13 10:27:20;;;;;;;1.13;1.07;;;11.70;99.90;;;;;;6302713;28;20667;-66
2023/04/13 10:30:24;;;;;;;1.40;1.30;;;11.60;99.90;;;;;;6302233;28;20417;-67
2023/04/13 10:33:30;;;;;;;1.00;1.00;;;11.70;99.90;;;;;;6291563;28;20468;-64
2023/04/13 10:36:40;;;;;;;1.30;1.20;;;11.80;99.90;;;;;;6277054;28;20560;-64
2023/04/13 10:39:44;;;;;;;1.30;1.20;;;12.00;99.90;;;;;;6276868;28;20449;-64
2023/04/13 10:42:50;;;;;;;1.23;1.10;;;12.10;99.90;;;;;;6281088;28;20484;-65
2023/04/13 10:46:08;;;;;;;1.53;1.20;;;12.30;99.90;;;;;;6300761;28;20939;-64
2023/04/13 10:49:12;;;;;;;2.57;1.17;;;12.40;99.90;;;;;;6301955;28;20446;-66
2023/04/13 10:52:16;;;;;;;0.80;0.80;;;12.40;99.90;;;;;;6299875;28;20904;-66
2023/04/13 10:55:23;;;;;;;1.83;1.20;;;12.40;99.90;;;;;;6276815;28;20458;-64
2023/04/13 10:58:31;;;;;;;1.30;1.10;;;12.30;99.90;;;;;;6276035;28;20430;-65
2023/04/13 11:01:35;;;;;;;3.20;1.07;;;12.20;99.90;;;;;;6279059;28;20648;-65
2023/04/13 11:04:39;;;;;;;2.40;1.23;;;12.10;99.90;;;;;;6297547;28;20454;-66
2023/04/13 11:07:44;;;;;;;1.00;1.00;;;12.10;99.90;;;;;;6284469;28;20441;-66
2023/04/13 11:10:51;;;;;;;1.13;1.03;;;12.20;99.90;;;;;;6286886;28;20445;-67
2023/04/13 11:13:56;;;;;;;2.53;0.90;;;12.40;99.90;;;;;;6283319;28;20781;-66
2023/04/13 11:17:00;;;;;;;1.37;0.93;;;12.50;99.90;;;;;;6275729;28;20837;-66
2023/04/13 11:20:08;;;;;;;1.90;0.97;;;12.60;99.90;;;;;;6276990;28;20454;-64
2023/04/13 11:23:17;;;;;;;1.10;0.93;;;12.70;99.90;;;;;;6277237;28;20486;-63
2023/04/13 11:26:32;;;;;;;1.20;1.10;;;12.70;99.90;;;;;;6276401;28;20505;-63
2023/04/13 11:29:37;;;;;;;1.47;1.00;;;12.70;99.90;;;;;;6293455;28;20433;-65
2023/04/13 11:32:42;;;;;;;1.10;1.00;;;12.80;99.90;;;;;;6300688;28;20442;-63
2023/04/13 11:35:46;;;;;;;1.17;1.07;;;12.80;99.90;;;;;;6300025;28;20481;-62
2023/04/13 11:38:53;;;;;;;2.10;1.10;;;12.70;99.90;;;;;;6300597;28;20452;-63
2023/04/13 11:41:57;;;;;;;1.13;1.00;;;12.60;99.90;;;;;;6300247;28;20445;-61
2023/04/13 11:45:06;;;;;;;2.10;1.30;;;12.60;99.90;;;;;;6300022;28;20457;-64
2023/04/13 11:48:10;;;;;;;2.20;1.43;;;12.60;99.90;;;;;;6297717;28;20440;-65
2023/04/13 11:51:14;;;;;;;39.13;21.27;;;12.70;99.90;;;;;;6300316;28;20448;-64
2023/04/13 11:54:18;;;;;;;26.70;13.80;;;12.80;99.90;;;;;;6282102;28;20494;-65
2023/04/13 11:57:22;;;;;;;4.07;3.17;;;13.00;99.90;;;;;;6275067;28;20850;-65
2023/04/13 12:00:28;;;;;;;3.00;2.80;;;13.20;99.90;;;;;;6276865;28;20442;-64
2023/04/13 12:03:34;;;;;;;1.93;1.33;;;13.40;99.90;;;;;;6275839;28;20486;-64
2023/04/13 12:06:57;;;;;;;1.10;1.00;;;13.60;99.90;;;;;;6275632;28;20620;-64
2023/04/13 12:10:01;;;;;;;0.73;0.73;;;13.70;99.90;;;;;;6294369;28;20460;-65
2023/04/13 12:19:49;;;;;;;1.50;1.00;;;13.70;99.90;;;;;;6297900;27;20590;-62
2023/04/13 12:22:55;;;;;;;1.00;0.90;;;13.50;99.90;;;;;;6295682;28;20503;-62
2023/04/13 12:26:13;;;;;;;1.90;1.00;;;13.40;99.90;;;;;;6270675;28;21075;-62
2023/04/13 12:29:38;;;;;;;1.40;0.80;;;13.20;99.90;;;;;;6288327;28;20858;-62
2023/04/13 12:32:43;;;;;;;1.23;0.80;;;13.00;99.90;;;;;;6295679;28;20461;-63
2023/04/13 12:35:50;;;;;;;1.20;1.00;;;12.90;99.90;;;;;;6295714;28;20585;-63
2023/04/13 12:38:53;;;;;;;1.20;1.10;;;12.80;99.90;;;;;;6295263;28;20472;-63
2023/04/13 12:41:56;;;;;;;1.27;0.97;;;12.70;99.90;;;;;;6290864;28;20777;-64
2023/04/13 12:45:00;;;;;;;1.20;1.10;;;12.70;99.90;;;;;;6282437;28;20477;-64
2023/04/13 12:48:03;;;;;;;1.20;1.10;;;12.90;99.90;;;;;;6283101;28;20476;-64
2023/04/13 12:51:07;;;;;;;0.87;0.80;;;13.00;99.90;;;;;;6269510;28;21868;-64
2023/04/13 12:54:12;;;;;;;1.00;0.90;;;13.00;99.90;;;;;;6281405;28;20470;-64
2023/04/13 12:57:16;;;;;;;1.43;1.10;;;13.00;99.90;;;;;;6280933;28;20555;-63
2023/04/13 13:00:21;;;;;;;1.40;1.23;;;12.90;99.90;;;;;;6282264;28;20800;-63
2023/04/13 13:03:24;;;;;;;1.10;0.97;;;13.00;99.90;;;;;;6281656;28;20470;-64
2023/04/13 13:06:29;;;;;;;2.07;1.10;;;12.90;99.90;;;;;;6285797;28;20466;-65
2023/04/13 13:09:32;;;;;;;2.10;1.37;;;12.90;99.90;;;;;;6280991;28;21079;-63
2023/04/13 13:12:36;;;;;;;0.90;0.83;;;12.90;99.90;;;;;;6282711;28;20457;-63
2023/04/13 13:15:39;;;;;;;2.00;0.80;;;12.90;99.90;;;;;;6280985;28;20980;-64
2023/04/13 13:18:45;;;;;;;0.80;0.80;;;12.90;99.90;;;;;;6281282;28;20481;-63
2023/04/13 13:22:04;;;;;;;1.77;0.80;;;12.90;99.90;;;;;;6289242;28;20972;-63
2023/04/13 13:25:09;;;;;;;0.90;0.90;;;12.90;99.90;;;;;;6282292;28;20484;-66
2023/04/13 13:28:12;;;;;;;1.00;0.80;;;12.90;99.90;;;;;;6273763;28;20466;-67
2023/04/13 13:31:17;;;;;;;1.00;0.90;;;12.90;99.90;;;;;;6252537;28;20588;-66
2023/04/13 13:34:21;;;;;;;1.90;1.37;;;13.00;99.90;;;;;;6252892;28;20537;-66
2023/04/13 13:37:26;;;;;;;1.70;1.60;;;12.80;99.90;;;;;;6252520;28;20463;-64
2023/04/13 13:40:29;;;;;;;1.80;1.40;;;12.70;99.90;;;;;;6252352;28;20489;-66
2023/04/13 13:43:33;;;;;;;2.03;1.70;;;12.50;99.90;;;;;;6253863;28;20478;-66
2023/04/13 13:46:36;;;;;;;1.90;1.80;;;12.30;99.90;;;;;;6244489;28;20482;-63
2023/04/13 13:49:39;;;;;;;1.40;1.30;;;12.10;99.90;;;;;;6231316;28;20487;-66
2023/04/13 13:52:44;;;;;;;3.20;1.93;;;12.10;99.90;;;;;;6249496;28;20471;-67
2023/04/13 13:56:05;;;;;;;2.03;1.93;;;12.00;99.90;;;;;;6274423;28;20478;-68
2023/04/13 13:59:08;;;;;;;2.33;2.10;;;11.90;99.90;;;;;;6253942;28;20478;-67
2023/04/13 14:02:11;;;;;;;1.57;1.47;;;12.00;99.90;;;;;;6251905;28;20797;-67
2023/04/13 14:05:15;;;;;;;2.23;1.67;;;12.00;99.90;;;;;;6249714;28;20961;-66
2023/04/13 14:08:19;;;;;;;1.90;1.57;;;12.10;99.90;;;;;;6247843;28;20467;-64
2023/04/13 14:11:23;;;;;;;1.67;1.57;;;12.00;99.90;;;;;;6251273;28;20467;-64
2023/04/13 14:14:26;;;;;;;1.70;1.53;;;12.00;99.90;;;;;;6251897;28;20463;-64
2023/04/13 14:17:29;;;;;;;2.23;1.30;;;11.90;99.90;;;;;;6252341;28;20819;-64
2023/04/13 14:20:33;;;;;;;2.27;1.80;;;12.00;99.90;;;;;;6274853;28;20847;-64
2023/04/13 14:23:39;;;;;;;1.73;1.63;;;12.00;99.90;;;;;;6245514;28;20456;-65
2023/04/13 14:26:42;;;;;;;1.80;1.70;;;12.00;99.90;;;;;;6226014;28;20785;-64
2023/04/13 14:29:46;;;;;;;2.63;2.30;;;12.00;99.90;;;;;;6243982;28;20928;-64
2023/04/13 14:32:50;;;;;;;2.33;2.10;;;12.10;99.90;;;;;;6250800;28;20474;-64
2023/04/13 14:35:53;;;;;;;2.03;1.70;;;12.10;99.90;;;;;;6251691;28;20826;-65
2023/04/13 14:38:59;;;;;;;1.83;1.73;;;12.00;99.90;;;;;;6251402;28;20477;-65
2023/04/13 14:42:03;;;;;;;2.93;2.03;;;11.90;99.90;;;;;;6250547;28;20471;-64
2023/04/13 14:45:09;;;;;;;2.70;2.50;;;11.90;99.90;;;;;;6251394;28;20471;-64
2023/04/13 14:48:12;;;;;;;2.10;1.90;;;11.90;99.90;;;;;;6251595;28;20470;-64
2023/04/13 14:51:17;;;;;;;2.60;2.40;;;11.90;99.90;;;;;;6250579;28;20486;-65
2023/04/13 14:54:21;;;;;;;4.20;2.80;;;11.90;99.90;;;;;;6249277;28;20471;-65
2023/04/13 14:57:24;;;;;;;2.30;2.10;;;12.00;99.90;;;;;;6244614;28;20475;-63
2023/04/13 15:00:38;;;;;;;2.20;2.00;;;12.00;99.90;;;;;;6226115;28;20822;-64
2023/04/13 15:03:41;;;;;;;2.10;1.90;;;12.00;99.90;;;;;;6249267;28;20550;-64
2023/04/13 15:06:46;;;;;;;2.10;2.00;;;11.80;99.90;;;;;;6250806;28;20494;-64
2023/04/13 15:09:51;;;;;;;2.00;1.90;;;11.90;99.90;;;;;;6250188;28;20503;-63
2023/04/13 15:12:54;;;;;;;3.43;1.90;;;11.70;99.90;;;;;;6244311;28;20471;-63
2023/04/13 15:15:57;;;;;;;2.47;2.27;;;11.80;99.90;;;;;;6244566;28;20791;-63
2023/04/13 15:19:00;;;;;;;2.50;2.30;;;11.70;99.90;;;;;;6229074;28;20556;-64
2023/04/13 15:22:04;;;;;;;2.93;2.27;;;11.60;99.90;;;;;;6238235;28;20491;-64
2023/04/13 15:25:09;;;;;;;3.03;2.20;;;11.70;99.90;;;;;;6230846;28;20483;-64
2023/04/13 15:28:13;;;;;;;1.80;1.70;;;11.60;99.90;;;;;;6236492;28;20483;-63
2023/04/13 15:31:16;;;;;;;2.40;2.03;;;11.50;99.90;;;;;;6237413;28;20482;-62
2023/04/13 15:34:19;;;;;;;2.97;2.23;;;11.50;99.90;;;;;;6237975;28;20494;-64
2023/04/13 15:37:23;;;;;;;2.37;2.17;;;11.50;99.90;;;;;;6238161;28;20467;-62
2023/04/13 15:40:31;;;;;;;2.67;2.47;;;11.40;99.90;;;;;;6239175;28;20535;-65
2023/04/13 15:43:34;;;;;;;2.30;2.20;;;11.30;99.90;;;;;;6246687;28;20502;-65
2023/04/13 15:46:38;;;;;;;2.23;2.13;;;11.40;99.90;;;;;;6240788;28;20478;-64
2023/04/13 15:49:42;;;;;;;3.20;2.67;;;11.30;99.90;;;;;;6249968;28;20477;-63
2023/04/13 15:52:45;;;;;;;2.37;2.17;;;11.20;99.90;;;;;;6249437;28;20481;-63
2023/04/13 15:55:50;;;;;;;2.40;2.20;;;11.10;99.90;;;;;;6249731;28;20489;-62
2023/04/13 15:58:53;;;;;;;2.47;2.27;;;11.10;99.90;;;;;;6249510;28;20490;-65
2023/04/13 16:01:56;;;;;;;2.40;2.20;;;11.10;99.90;;;;;;6247404;28;20482;-68
2023/04/13 16:05:00;;;;;;;3.30;3.10;;;11.00;99.90;;;;;;6230945;28;20963;-67
2023/04/13 16:08:03;;;;;;;4.50;4.10;;;10.90;99.90;;;;;;6246943;28;20498;-66
2023/04/13 16:11:08;;;;;;;5.97;5.47;;;10.90;99.90;;;;;;6235319;28;20468;-66
2023/04/13 16:14:11;;;;;;;31.97;28.67;;;11.00;99.90;;;;;;6224898;28;20487;-68
2023/04/13 16:17:17;;;;;;;26.47;23.77;;;10.90;99.90;;;;;;6225171;28;20483;-66
2023/04/13 16:20:27;;;;;;;46.43;41.43;;;10.80;99.90;;;;;;6224836;28;20476;-66
2023/04/13 16:23:32;;;;;;;112.73;101.00;;;10.80;99.90;;;;;;6224125;28;20555;-67
2023/04/13 16:26:39;;;;;;;25.67;23.27;;;10.70;99.90;;;;;;6226188;28;20424;-66
2023/04/13 16:29:44;;;;;;;9.77;8.97;;;10.50;99.90;;;;;;6228601;28;20452;-67